King of Scandinavia — OVOL2 — position and weather

sailwx.info

Track history (hours):
 
Tides and Currents Weather Stations Pressure Air Temp Water Temp Dewpoint Dewpoint Depression Visibility Wind Speed Wind Dir Waves Ship Positions

King of Scandinavia

Ship's website: http://www.dfds.co.uk/DSW/EN/OnBoard/na/KING.htm

Last reported at 2020-Sep-18 07:30 UTC. Time now 2020-Sep-18 07:41 UTC.
Position N 54°60' W 001°19'.

Length 166 m; beam 27.6 m; draft 6.2 m.

Type: Ship. MMSI: 220449000.

Date/timePositionNaut miles runAvg speedWind from/ knotsBaromVisibWave heightAir tempDewpointWater temp
2020-Sep-18 07:30N 54°60' W 001°19'917.3
2020-Sep-18 07:00N 54°54' W 001°07'9116.6
2020-Sep-18 01:30N 53°59' E 000°58'816.4
2020-Sep-18 01:00N 53°54' E 001°09'9315.5
2020-Sep-17 19:02N 53°05' E 003°21'5415.4
2020-Sep-17 15:30N 52°29' E 004°29'4 3.9
2020-Sep-17 14:28N 52°28' E 004°35'0 0.0
2020-Sep-17 11:58N 52°28' E 004°35'0 0.0
2020-Sep-17 07:56N 52°28' E 004°35'0 0.5
2020-Sep-17 07:30N 52°28' E 004°35'5 9.4
2020-Sep-17 07:00N 52°29' E 004°27'510.9
2020-Sep-17 06:30N 52°33' E 004°21'4815.7
2020-Sep-17 03:27N 53°05' E 003°22'816.9
2020-Sep-17 03:00N 53°09' E 003°11'2516.6
2020-Sep-17 01:30N 53°23' E 002°37'816.2
2020-Sep-17 01:00N 53°28' E 002°27'816.1
2020-Sep-17 00:30N 53°33' E 002°16'815.9
2020-Sep-16 23:58N 53°36' E 002°03'6017.3
2020-Sep-16 20:30N 54°08' E 000°37'8810.3
2020-Sep-16 11:56N 54°59' W 001°27'13211.1
2020-Sep-15 23:59N 53°43' E 001°38'816.4
2020-Sep-15 23:30N 53°40' E 001°50'1716.5
2020-Sep-15 22:30N 53°34' E 002°16'3115.7
2020-Sep-15 20:31N 53°15' E 002°58'7511.6
2020-Sep-15 14:00N 52°28' E 004°35'0 0.0
2020-Sep-15 13:30N 52°28' E 004°35'0 0.0
2020-Sep-15 12:00N 52°28' E 004°35'0 0.0
2020-Sep-15 09:31N 52°28' E 004°35'0 0.1
2020-Sep-15 07:30N 52°28' E 004°35'2412.2
2020-Sep-15 05:31N 52°44' E 004°04'4518.1
2020-Sep-15 03:01N 53°12' E 003°06'1817.9
2020-Sep-15 02:00N 53°22' E 002°41'8517.0
2020-Sep-14 21:00N 54°07' E 000°39'1917.2
2020-Sep-14 19:56N 54°18' E 000°14'7112.8
2020-Sep-14 14:22N 54°59' W 001°27'0 0.0
2020-Sep-14 12:30N 54°59' W 001°27'0 0.0
2020-Sep-14 09:51N 54°59' W 001°27'11212.7
2020-Sep-14 01:00N 53°54' E 001°10'6015.7
2020-Sep-13 21:13N 53°24' E 002°37'8015.3
2020-Sep-13 15:59N 52°34' E 004°20'714.8
2020-Sep-13 15:30N 52°29' E 004°29'4 3.7
2020-Sep-13 14:28N 52°28' E 004°35'0 0.0
2020-Sep-13 13:25N 52°28' E 004°35'0 0.0
2020-Sep-13 08:58N 52°28' E 004°35'0 0.0
2020-Sep-13 08:28N 52°28' E 004°35'33 9.5
2020-Sep-13 04:57N 52°49' E 003°53'715.7
2020-Sep-13 04:29N 52°54' E 003°44'815.9
2020-Sep-13 04:00N 52°59' E 003°34'3517.6
2020-Sep-13 02:00N 53°19' E 002°46'4518.1
2020-Sep-12 23:30N 53°43' E 001°41'13317.7
2020-Sep-12 16:00N 55°01' W 001°23'3 5.4
2020-Sep-12 15:30N 54°59' W 001°27'0 0.0
2020-Sep-12 14:21N 54°59' W 001°27'0 0.0
2020-Sep-12 09:59N 54°59' W 001°27'0 0.0
2020-Sep-12 08:29N 54°59' W 001°27'10815.1
2020-Sep-12 01:19N 53°57' E 001°04'15410.8
2020-Sep-11 11:00N 52°28' E 004°35'0 0.0
2020-Sep-11 09:00N 52°28' E 004°35'0 0.0
2020-Sep-11 08:30N 52°28' E 004°35'0 0.0
2020-Sep-11 08:00N 52°28' E 004°35'10 6.8
2020-Sep-11 06:30N 52°33' E 004°21'814.5
2020-Sep-11 05:59N 52°39' E 004°12'3315.7
2020-Sep-11 03:53N 53°00' E 003°32'615.7
2020-Sep-11 03:30N 53°04' E 003°24'7318.1
2020-Sep-10 23:27N 53°43' E 001°40'2718.6
2020-Sep-10 22:00N 53°58' E 001°01'1018.6
2020-Sep-10 21:29N 54°04' E 000°48'918.5
2020-Sep-10 21:00N 54°09' E 000°36'2818.6
2020-Sep-10 19:31N 54°26' W 000°02'5911.8
2020-Sep-10 14:28N 54°59' W 001°27'0 0.0
2020-Sep-10 11:19N 54°59' W 001°27'0 0.0
2020-Sep-10 10:58N 54°59' W 001°27'0 0.0
2020-Sep-10 09:28N 54°59' W 001°27'0 0.2
2020-Sep-10 08:01N 54°60' W 001°27'23616.2
2020-Sep-09 17:25N 52°45' E 004°01'2115.0
2020-Sep-09 16:00N 52°30' E 004°26'6 1.9
2020-Sep-09 12:58N 52°28' E 004°35'0 0.0
2020-Sep-09 10:58N 52°28' E 004°35'0 0.0
2020-Sep-09 09:28N 52°28' E 004°35'0 0.0
2020-Sep-09 08:58N 52°28' E 004°35'0 0.0
2020-Sep-09 07:58N 52°28' E 004°35'3 3.6
2020-Sep-09 07:01N 52°28' E 004°29'1313.2
2020-Sep-09 06:01N 52°38' E 004°14'7617.1
2020-Sep-09 01:34N 53°24' E 002°35'1118.7
2020-Sep-09 01:00N 53°31' E 002°21'1818.8
2020-Sep-09 00:03N 53°39' E 001°54'1119.2
2020-Sep-08 23:30N 53°44' E 001°38'13017.6
2020-Sep-08 16:06N 55°01' W 001°22'3 4.9
2020-Sep-08 15:29N 54°59' W 001°27'0 0.0
2020-Sep-08 13:29N 54°59' W 001°27'0 0.0
2020-Sep-08 12:41N 54°59' W 001°27'0 0.0
2020-Sep-08 08:50N 54°59' W 001°27'1 1.0
2020-Sep-08 08:00N 55°00' W 001°26'  
Track history (hours):
 
Tides and Currents Weather Stations Pressure Air Temp Water Temp Dewpoint Dewpoint Depression Visibility Wind Speed Wind Dir Waves Ship Positions

King of Scandinavia

Ship's website: http://www.dfds.co.uk/DSW/EN/OnBoard/na/KING.htm

Last reported at 2020-Sep-18 07:30 UTC. Time now 2020-Sep-18 07:41 UTC.
Position N 54°60' W 001°19'.

Length 166 m; beam 27.6 m; draft 6.2 m.

Type: Ship. MMSI: 220449000.

Date/timePositionNaut miles runAvg speedWind from/ knotsBaromVisibWave heightAir tempDewpointWater temp
2020-Sep-18 07:30N 54°60' W 001°19'917.3
2020-Sep-18 07:00N 54°54' W 001°07'9116.6
2020-Sep-18 01:30N 53°59' E 000°58'816.4
2020-Sep-18 01:00N 53°54' E 001°09'9315.5
2020-Sep-17 19:02N 53°05' E 003°21'5415.4
2020-Sep-17 15:30N 52°29' E 004°29'4 3.9
2020-Sep-17 14:28N 52°28' E 004°35'0 0.0
2020-Sep-17 11:58N 52°28' E 004°35'0 0.0
2020-Sep-17 07:56N 52°28' E 004°35'0 0.5
2020-Sep-17 07:30N 52°28' E 004°35'5 9.4
2020-Sep-17 07:00N 52°29' E 004°27'510.9
2020-Sep-17 06:30N 52°33' E 004°21'4815.7
2020-Sep-17 03:27N 53°05' E 003°22'816.9
2020-Sep-17 03:00N 53°09' E 003°11'2516.6
2020-Sep-17 01:30N 53°23' E 002°37'816.2
2020-Sep-17 01:00N 53°28' E 002°27'816.1
2020-Sep-17 00:30N 53°33' E 002°16'815.9
2020-Sep-16 23:58N 53°36' E 002°03'6017.3
2020-Sep-16 20:30N 54°08' E 000°37'8810.3
2020-Sep-16 11:56N 54°59' W 001°27'13211.1
2020-Sep-15 23:59N 53°43' E 001°38'816.4
2020-Sep-15 23:30N 53°40' E 001°50'1716.5
2020-Sep-15 22:30N 53°34' E 002°16'3115.7
2020-Sep-15 20:31N 53°15' E 002°58'7511.6
2020-Sep-15 14:00N 52°28' E 004°35'0 0.0
2020-Sep-15 13:30N 52°28' E 004°35'0 0.0
2020-Sep-15 12:00N 52°28' E 004°35'0 0.0
2020-Sep-15 09:31N 52°28' E 004°35'0 0.1
2020-Sep-15 07:30N 52°28' E 004°35'2412.2
2020-Sep-15 05:31N 52°44' E 004°04'4518.1
2020-Sep-15 03:01N 53°12' E 003°06'1817.9
2020-Sep-15 02:00N 53°22' E 002°41'8517.0
2020-Sep-14 21:00N 54°07' E 000°39'1917.2
2020-Sep-14 19:56N 54°18' E 000°14'7112.8
2020-Sep-14 14:22N 54°59' W 001°27'0 0.0
2020-Sep-14 12:30N 54°59' W 001°27'0 0.0
2020-Sep-14 09:51N 54°59' W 001°27'11212.7
2020-Sep-14 01:00N 53°54' E 001°10'6015.7
2020-Sep-13 21:13N 53°24' E 002°37'8015.3
2020-Sep-13 15:59N 52°34' E 004°20'714.8
2020-Sep-13 15:30N 52°29' E 004°29'4 3.7
2020-Sep-13 14:28N 52°28' E 004°35'0 0.0
2020-Sep-13 13:25N 52°28' E 004°35'0 0.0
2020-Sep-13 08:58N 52°28' E 004°35'0 0.0
2020-Sep-13 08:28N 52°28' E 004°35'33 9.5
2020-Sep-13 04:57N 52°49' E 003°53'715.7
2020-Sep-13 04:29N 52°54' E 003°44'815.9
2020-Sep-13 04:00N 52°59' E 003°34'3517.6
2020-Sep-13 02:00N 53°19' E 002°46'4518.1
2020-Sep-12 23:30N 53°43' E 001°41'13317.7
2020-Sep-12 16:00N 55°01' W 001°23'3 5.4
2020-Sep-12 15:30N 54°59' W 001°27'0 0.0
2020-Sep-12 14:21N 54°59' W 001°27'0 0.0
2020-Sep-12 09:59N 54°59' W 001°27'0 0.0
2020-Sep-12 08:29N 54°59' W 001°27'10815.1
2020-Sep-12 01:19N 53°57' E 001°04'15410.8
2020-Sep-11 11:00N 52°28' E 004°35'0 0.0
2020-Sep-11 09:00N 52°28' E 004°35'0 0.0
2020-Sep-11 08:30N 52°28' E 004°35'0 0.0
2020-Sep-11 08:00N 52°28' E 004°35'10 6.8
2020-Sep-11 06:30N 52°33' E 004°21'814.5
2020-Sep-11 05:59N 52°39' E 004°12'3315.7
2020-Sep-11 03:53N 53°00' E 003°32'615.7
2020-Sep-11 03:30N 53°04' E 003°24'7318.1
2020-Sep-10 23:27N 53°43' E 001°40'2718.6
2020-Sep-10 22:00N 53°58' E 001°01'1018.6
2020-Sep-10 21:29N 54°04' E 000°48'918.5
2020-Sep-10 21:00N 54°09' E 000°36'2818.6
2020-Sep-10 19:31N 54°26' W 000°02'5911.8
2020-Sep-10 14:28N 54°59' W 001°27'0 0.0
2020-Sep-10 11:19N 54°59' W 001°27'0 0.0
2020-Sep-10 10:58N 54°59' W 001°27'0 0.0
2020-Sep-10 09:28N 54°59' W 001°27'0 0.2
2020-Sep-10 08:01N 54°60' W 001°27'23616.2
2020-Sep-09 17:25N 52°45' E 004°01'2115.0
2020-Sep-09 16:00N 52°30' E 004°26'6 1.9
2020-Sep-09 12:58N 52°28' E 004°35'0 0.0
2020-Sep-09 10:58N 52°28' E 004°35'0 0.0
2020-Sep-09 09:28N 52°28' E 004°35'0 0.0
2020-Sep-09 08:58N 52°28' E 004°35'0 0.0
2020-Sep-09 07:58N 52°28' E 004°35'3 3.6
2020-Sep-09 07:01N 52°28' E 004°29'1313.2
2020-Sep-09 06:01N 52°38' E 004°14'7617.1
2020-Sep-09 01:34N 53°24' E 002°35'1118.7
2020-Sep-09 01:00N 53°31' E 002°21'1818.8
2020-Sep-09 00:03N 53°39' E 001°54'1119.2
2020-Sep-08 23:30N 53°44' E 001°38'13017.6
2020-Sep-08 16:06N 55°01' W 001°22'3 4.9
2020-Sep-08 15:29N 54°59' W 001°27'0 0.0
2020-Sep-08 13:29N 54°59' W 001°27'0 0.0
2020-Sep-08 12:41N 54°59' W 001°27'0 0.0
2020-Sep-08 08:50N 54°59' W 001°27'1 1.0
2020-Sep-08 08:00N 55°00' W 001°26'  

Dump ship's entire track history